createdAt,value
2022-12-14T00:01:48.819Z,66205.69
2022-12-14T00:04:17.287Z,66158.66
2022-12-14T00:06:44.682Z,66160.91
2022-12-14T00:09:11.782Z,66208.13
2022-12-14T00:11:38.819Z,66208.69
2022-12-14T00:14:09.052Z,66210.91
2022-12-14T00:16:36.844Z,66208.34
2022-12-14T00:19:05.543Z,66164.78
2022-12-14T00:21:33.666Z,66206.13
2022-12-14T00:24:00.866Z,66207.91
2022-12-14T00:26:32.678Z,66159.22
2022-12-14T00:29:01.919Z,66210.91
2022-12-14T00:31:31.140Z,66215.03
2022-12-14T00:33:58.822Z,66184.84
2022-12-14T00:36:25.840Z,66241.03
2022-12-14T00:38:52.918Z,66246.03
2022-12-14T00:41:20.048Z,66249.38
2022-12-14T00:43:49.403Z,66199.88
2022-12-14T00:46:18.119Z,66206.00
2022-12-14T00:48:45.755Z,66250.50
2022-12-14T00:51:14.827Z,66206.00
2022-12-14T00:53:44.545Z,66208.25
2022-12-14T00:56:12.104Z,66256.84
2022-12-14T00:58:39.098Z,66219.94
2022-12-14T01:01:08.611Z,66272.22
2022-12-14T01:03:36.173Z,66282.03
2022-12-14T01:06:03.951Z,66286.47
2022-12-14T01:08:35.738Z,66287.25
2022-12-14T01:11:07.680Z,66290.84
2022-12-14T01:13:35.533Z,66302.31
2022-12-14T01:16:09.079Z,66313.81
2022-12-14T01:18:37.590Z,66258.38
2022-12-14T01:21:13.063Z,66315.16
2022-12-14T01:23:40.727Z,66312.59
2022-12-14T01:26:08.082Z,66310.91
2022-12-14T01:28:35.981Z,66310.91
2022-12-14T01:31:11.277Z,66319.97
2022-12-14T01:33:38.707Z,66320.06
2022-12-14T01:36:11.555Z,66333.78
2022-12-14T01:38:39.491Z,66346.72
2022-12-14T01:41:07.199Z,66352.88
2022-12-14T01:43:54.216Z,66347.19
2022-12-14T01:46:28.337Z,66306.88
2022-12-14T01:49:11.944Z,66355.31
2022-12-14T01:51:42.788Z,66368.16
2022-12-14T01:54:13.004Z,66373.41
2022-12-14T01:56:44.789Z,66379.88
2022-12-14T01:59:21.326Z,66385.13
2022-12-14T02:01:49.251Z,66387.34
2022-12-14T02:04:18.647Z,66394.38
2022-12-14T02:06:49.046Z,66396.63
2022-12-14T02:09:33.502Z,66397.75
2022-12-14T02:12:16.153Z,66400.84
2022-12-14T02:14:44.376Z,66357.41
2022-12-14T02:17:13.307Z,66399.63
2022-12-14T02:19:43.904Z,66398.53
2022-12-14T02:22:38.904Z,66397.41
2022-12-14T02:25:44.058Z,66402.78
2022-12-14T02:28:31.650Z,66402.78
2022-12-14T02:31:25.160Z,66405.22
2022-12-14T02:34:09.813Z,66411.13
2022-12-14T02:36:55.789Z,66409.13
2022-12-14T02:39:35.130Z,66405.22
2022-12-14T02:42:15.286Z,66409.78
2022-12-14T02:45:02.081Z,66406.69
2022-12-14T02:47:45.970Z,66400.19
2022-12-14T02:50:39.643Z,66398.53
2022-12-14T02:53:34.869Z,66398.19
2022-12-14T02:56:07.071Z,66410.00
2022-12-14T02:58:39.710Z,66413.16
2022-12-14T03:01:12.752Z,66408.00
2022-12-14T03:03:41.482Z,66408.56
2022-12-14T03:06:26.223Z,66409.47
2022-12-14T03:08:58.315Z,66403.75
2022-12-14T03:11:34.985Z,66410.00
2022-12-14T03:14:12.743Z,66410.78
2022-12-14T03:16:54.969Z,66411.91
2022-12-14T03:19:32.476Z,66417.84
2022-12-14T03:22:05.969Z,66370.44
2022-12-14T03:24:40.929Z,66422.63
2022-12-14T03:27:17.720Z,66415.28
2022-12-14T03:29:58.511Z,66377.13
2022-12-14T03:32:30.271Z,66421.75
2022-12-14T03:35:04.395Z,66418.84
2022-12-14T03:37:40.895Z,66419.19
2022-12-14T03:40:11.279Z,66421.41
2022-12-14T03:42:59.518Z,66424.31
2022-12-14T03:45:48.732Z,66423.97
2022-12-14T03:48:39.505Z,66421.97
2022-12-14T03:51:36.386Z,66381.06
2022-12-14T03:54:20.386Z,66427.66
2022-12-14T03:57:08.340Z,66420.84
2022-12-14T03:59:54.171Z,66424.19
2022-12-14T04:02:46.653Z,66424.75
2022-12-14T04:05:22.526Z,66426.22
2022-12-14T04:08:03.564Z,66428.44
2022-12-14T04:10:58.238Z,66432.69
2022-12-14T04:13:51.986Z,66424.75
2022-12-14T04:16:41.795Z,66425.88
2022-12-14T04:19:16.682Z,66429.91
2022-12-14T04:21:55.416Z,66422.31
2022-12-14T04:24:51.742Z,66420.06
2022-12-14T04:27:35.165Z,66418.41
2022-12-14T04:30:04.012Z,66418.94
2022-12-14T04:32:40.190Z,66418.94
2022-12-14T04:35:15.297Z,66421.50
2022-12-14T04:37:48.852Z,66417.16
2022-12-14T04:40:22.099Z,66418.94
2022-12-14T04:43:03.434Z,66423.97
2022-12-14T04:46:02.188Z,66420.06
2022-12-14T04:48:37.686Z,66415.69
2022-12-14T04:51:38.862Z,66417.50
2022-12-14T04:54:14.428Z,66421.75
2022-12-14T04:56:52.836Z,66419.19
2022-12-14T04:59:20.051Z,66382.84
2022-12-14T05:01:56.159Z,66426.75
2022-12-14T05:04:56.569Z,66420.50
2022-12-14T05:07:49.018Z,66426.22
2022-12-14T05:10:27.532Z,66427.88
2022-12-14T05:13:14.761Z,66426.75
2022-12-14T05:15:49.563Z,66427.34
2022-12-14T05:18:17.431Z,66428.78
2022-12-14T05:20:46.655Z,66426.41
2022-12-14T05:23:14.198Z,66433.25
2022-12-14T05:25:41.380Z,66430.31
2022-12-14T05:28:10.492Z,66434.03
2022-12-14T05:30:37.777Z,66437.72
2022-12-14T05:33:05.265Z,66433.25
2022-12-14T05:35:32.443Z,66435.16
2022-12-14T05:38:00.079Z,66390.88
2022-12-14T05:40:27.146Z,66431.44
2022-12-14T05:43:04.774Z,66441.06
2022-12-14T05:45:31.989Z,66440.16
2022-12-14T05:47:59.181Z,66394.22
2022-12-14T05:50:26.403Z,66442.19
2022-12-14T05:52:55.650Z,66441.28
2022-12-14T05:55:22.748Z,66451.13
2022-12-14T05:57:49.897Z,66448.56
2022-12-14T06:00:17.219Z,66447.66
2022-12-14T06:02:44.811Z,66446.19
2022-12-14T06:05:11.853Z,66463.94
2022-12-14T06:07:39.696Z,66416.75
2022-12-14T06:10:07.205Z,66459.94
2022-12-14T06:12:34.313Z,66458.59
2022-12-14T06:15:01.400Z,66461.59
2022-12-14T06:17:31.851Z,66459.03
2022-12-14T06:20:05.438Z,66461.59
2022-12-14T06:22:32.814Z,66462.16
2022-12-14T06:24:59.998Z,66460.47
2022-12-14T06:27:27.164Z,66464.19
2022-12-14T06:29:54.244Z,66464.06
2022-12-14T06:32:21.536Z,66472.34
2022-12-14T06:34:48.653Z,66468.88
2022-12-14T06:37:16.097Z,66469.97
2022-12-14T06:39:43.185Z,66473.88
2022-12-14T06:42:10.892Z,66472.78
2022-12-14T06:44:37.996Z,66477.94
2022-12-14T06:47:07.886Z,66479.59
2022-12-14T06:49:35.472Z,66480.16
2022-12-14T06:52:02.587Z,66480.94
2022-12-14T06:54:30.346Z,66484.84
2022-12-14T06:56:57.484Z,66442.44
2022-12-14T06:59:24.564Z,66486.19
2022-12-14T07:01:51.720Z,66492.13
2022-12-14T07:04:21.243Z,66496.03
2022-12-14T07:06:48.662Z,66494.34
2022-12-14T07:09:15.742Z,66497.47
2022-12-14T07:11:43.188Z,66501.38
2022-12-14T07:14:16.313Z,66502.16
2022-12-14T07:16:47.793Z,66506.44
2022-12-14T07:19:16.185Z,66506.63
2022-12-14T07:21:43.324Z,66503.50
2022-12-14T07:24:10.555Z,66509.09
2022-12-14T07:26:37.992Z,66508.31
2022-12-14T07:29:05.138Z,66512.22
2022-12-14T07:31:32.515Z,66510.00
2022-12-14T07:34:00.315Z,66506.53
2022-12-14T07:36:28.696Z,66518.94
2022-12-14T07:38:56.501Z,66517.25
2022-12-14T07:41:30.877Z,66516.38
2022-12-14T07:44:00.701Z,66525.06
2022-12-14T07:46:30.405Z,66523.41
2022-12-14T07:48:59.727Z,66526.75
2022-12-14T07:51:32.711Z,66528.66
2022-12-14T07:54:00.749Z,66531.22
2022-12-14T07:56:30.980Z,66535.38
2022-12-14T07:59:01.311Z,66540.16
2022-12-14T08:01:33.966Z,66535.03
2022-12-14T08:04:13.231Z,66541.28
2022-12-14T08:06:41.094Z,66546.50
2022-12-14T08:09:09.340Z,66549.84
2022-12-14T08:11:36.738Z,66560.25
2022-12-14T08:14:07.808Z,66558.25
2022-12-14T08:16:34.969Z,66566.41
2022-12-14T08:19:02.417Z,66581.28
2022-12-14T08:21:29.907Z,66583.19
2022-12-14T08:23:57.720Z,66583.19
2022-12-14T08:26:30.164Z,66589.91
2022-12-14T08:29:00.569Z,66598.63
2022-12-14T08:31:30.839Z,66606.88
2022-12-14T08:33:59.630Z,66615.25
2022-12-14T08:36:29.712Z,66612.47
2022-12-14T08:38:58.733Z,66606.34
2022-12-14T08:41:27.256Z,66606.09
2022-12-14T08:43:56.710Z,66610.81
2022-12-14T08:46:24.966Z,66621.44
2022-12-14T08:48:53.754Z,66628.81
2022-12-14T08:51:22.281Z,66629.81
2022-12-14T08:53:49.713Z,66631.50
2022-12-14T08:56:19.742Z,66634.84
2022-12-14T08:58:47.225Z,66635.63
2022-12-14T09:01:17.514Z,66644.91
2022-12-14T09:03:46.434Z,66655.88
2022-12-14T09:06:19.194Z,66664.06
2022-12-14T09:08:49.966Z,66675.13
2022-12-14T09:11:19.331Z,66672.91
2022-12-14T09:13:53.599Z,66676.81
2022-12-14T09:16:27.763Z,66676.81
2022-12-14T09:18:58.893Z,66684.66
2022-12-14T09:21:31.232Z,66697.84
2022-12-14T09:23:59.804Z,66689.66
2022-12-14T09:26:29.748Z,66696.75
2022-12-14T09:28:58.083Z,66702.69
2022-12-14T09:31:26.783Z,66706.47
2022-12-14T09:33:55.037Z,66699.31
2022-12-14T09:36:24.865Z,66705.13
2022-12-14T09:38:52.790Z,66701.28
2022-12-14T09:41:44.714Z,66705.56
2022-12-14T09:44:31.451Z,66690.78
2022-12-14T09:47:19.498Z,66698.75
2022-12-14T09:49:53.750Z,66694.50
2022-12-14T09:52:32.077Z,66700.09
2022-12-14T09:55:04.046Z,66695.84
2022-12-14T09:57:41.067Z,66693.59
2022-12-14T10:00:19.776Z,66696.75
2022-12-14T10:03:07.132Z,66693.59
2022-12-14T10:06:03.808Z,66702.19
2022-12-14T10:08:40.632Z,66709.28
2022-12-14T10:11:23.311Z,66722.47
2022-12-14T10:14:15.599Z,66726.97
2022-12-14T10:17:06.115Z,66729.75
2022-12-14T10:19:47.562Z,66716.88
2022-12-14T10:22:20.950Z,66716.53
2022-12-14T10:24:52.209Z,66723.25
2022-12-14T10:27:26.461Z,66728.84
2022-12-14T10:30:04.807Z,66746.75
2022-12-14T10:32:35.775Z,66749.00
2022-12-14T10:35:28.519Z,66759.66
2022-12-14T10:38:07.973Z,66760.78
2022-12-14T10:40:35.656Z,66766.94
2022-12-14T10:43:02.772Z,66752.59
2022-12-14T10:45:49.095Z,66762.47
2022-12-14T10:48:45.182Z,66759.44
2022-12-14T10:51:19.942Z,66761.31
2022-12-14T10:53:53.949Z,66760.19
2022-12-14T10:56:33.259Z,66754.28
2022-12-14T10:59:30.129Z,66762.56
2022-12-14T11:02:04.562Z,66766.94
2022-12-14T11:04:34.812Z,66773.97
2022-12-14T11:07:08.526Z,66770.28
2022-12-14T11:09:37.362Z,66793.81
2022-12-14T11:12:12.665Z,66786.31
2022-12-14T11:14:51.809Z,66796.94
2022-12-14T11:17:38.852Z,66796.94
2022-12-14T11:20:26.155Z,66777.91
2022-12-14T11:23:08.452Z,66794.38
2022-12-14T11:25:47.215Z,66786.31
2022-12-14T11:28:36.448Z,66786.31
2022-12-14T11:31:08.414Z,66787.22
2022-12-14T11:34:03.088Z,66778.00
2022-12-14T11:36:40.869Z,66777.00
2022-12-14T11:39:13.942Z,66779.94
2022-12-14T11:41:50.993Z,66770.84
2022-12-14T11:44:27.298Z,66783.50
2022-12-14T11:47:01.249Z,66770.16
2022-12-14T11:49:32.932Z,66785.75
2022-12-14T11:52:06.051Z,66785.41
2022-12-14T11:54:35.667Z,66776.78
2022-12-14T11:57:13.000Z,66775.91
2022-12-14T11:59:51.061Z,66788.91
2022-12-14T12:02:23.452Z,66773.97
2022-12-14T12:05:04.977Z,66769.50
2022-12-14T12:07:35.010Z,66771.19
2022-12-14T12:10:28.145Z,66764.69
2022-12-14T12:13:00.764Z,66768.03
2022-12-14T12:15:41.688Z,66777.69
2022-12-14T12:18:34.123Z,66772.31
2022-12-14T12:21:09.771Z,66773.63
2022-12-14T12:23:49.062Z,66770.97
2022-12-14T12:26:39.962Z,66773.44
2022-12-14T12:29:30.001Z,66775.66
2022-12-14T12:32:03.214Z,66780.38
2022-12-14T12:34:43.913Z,66768.03
2022-12-14T12:37:28.031Z,66772.31
2022-12-14T12:40:07.684Z,66762.47
2022-12-14T12:42:44.832Z,66774.34
2022-12-14T12:45:21.358Z,66755.38
2022-12-14T12:48:00.646Z,66762.47
2022-12-14T12:50:36.305Z,66757.75
2022-12-14T12:53:10.725Z,66754.03
2022-12-14T12:55:43.839Z,66770.28
2022-12-14T12:58:21.054Z,66780.16
2022-12-14T13:00:54.584Z,66715.16
2022-12-14T13:03:27.562Z,66759.66
2022-12-14T13:06:12.344Z,66758.53
2022-12-14T13:08:43.228Z,66755.19
2022-12-14T13:11:27.740Z,66765.59
2022-12-14T13:14:05.822Z,66759.66
2022-12-14T13:16:37.656Z,66763.13
2022-12-14T13:22:28.481Z,66759.66
2022-12-14T13:25:00.001Z,66772.19
2022-12-14T13:27:27.267Z,66768.81
2022-12-14T13:30:11.137Z,66767.84
2022-12-14T13:33:00.198Z,66762.78
2022-12-14T13:35:56.987Z,66770.06
2022-12-14T13:38:43.148Z,66762.47
2022-12-14T13:41:25.262Z,66778.81
2022-12-14T13:44:20.143Z,66772.53
2022-12-14T13:46:59.290Z,66773.09
2022-12-14T13:49:27.956Z,66769.16
2022-12-14T13:51:56.270Z,66779.81
2022-12-14T13:54:33.113Z,66784.41
2022-12-14T13:57:08.387Z,66769.88
2022-12-14T13:59:44.508Z,66761.69
2022-12-14T14:02:32.305Z,66755.53
2022-12-14T14:05:14.607Z,66753.84
2022-12-14T14:08:00.522Z,66750.47
2022-12-14T14:10:39.206Z,66751.81
2022-12-14T14:13:29.681Z,66742.06
2022-12-14T14:18:58.787Z,66752.50
2022-12-14T14:22:05.972Z,66749.91
2022-12-14T14:25:25.088Z,66746.31
2022-12-14T14:27:54.280Z,66731.66
2022-12-14T14:30:41.774Z,66739.81
2022-12-14T14:33:46.527Z,66733.69
2022-12-14T14:36:25.925Z,66730.88
2022-12-14T14:38:54.790Z,66737.59
2022-12-14T14:41:27.982Z,66751.59
2022-12-14T14:44:02.975Z,66738.94
2022-12-14T14:46:41.266Z,66733.69
2022-12-14T14:49:24.281Z,66741.75
2022-12-14T14:51:51.498Z,66734.22
2022-12-14T14:55:06.565Z,66679.34
2022-12-14T14:57:33.030Z,66734.09
2022-12-14T15:00:02.574Z,66739.28
2022-12-14T15:02:33.376Z,66731.44
2022-12-14T15:07:49.794Z,66739.47
2022-12-14T15:10:33.058Z,66749.00
2022-12-14T15:13:06.051Z,66738.72
2022-12-14T15:15:38.990Z,66735.16
2022-12-14T15:18:27.625Z,66739.28
2022-12-14T15:21:02.018Z,66738.03
2022-12-14T15:23:43.147Z,66739.28
2022-12-14T15:26:17.398Z,66726.97
2022-12-14T15:28:53.839Z,66737.94
2022-12-14T15:31:33.321Z,66739.28
2022-12-14T15:34:02.725Z,66685.50
2022-12-14T15:36:37.347Z,66733.13
2022-12-14T15:39:04.817Z,66728.31
2022-12-14T15:41:33.595Z,66721.94
2022-12-14T15:44:03.667Z,66717.44
2022-12-14T15:46:35.493Z,66718.22
2022-12-14T15:49:18.384Z,66722.72
2022-12-14T15:51:49.620Z,66722.34
2022-12-14T15:54:22.614Z,66719.34
2022-12-14T15:56:58.024Z,66711.72
2022-12-14T15:59:33.320Z,66715.97
2022-12-14T16:02:25.100Z,66717.09
2022-12-14T16:04:54.108Z,66716.53
2022-12-14T16:07:28.244Z,66716.53
2022-12-14T16:10:01.019Z,66720.59
2022-12-14T16:12:44.484Z,66723.38
2022-12-14T16:15:27.910Z,66724.16
2022-12-14T16:18:02.222Z,66718.00
2022-12-14T16:20:33.676Z,66717.09
2022-12-14T16:23:03.933Z,66715.06
2022-12-14T16:25:33.880Z,66716.31
2022-12-14T16:28:21.560Z,66717.78
2022-12-14T16:31:23.452Z,66717.66
2022-12-14T16:34:18.739Z,66713.31
2022-12-14T16:37:08.113Z,66719.69
2022-12-14T16:39:43.806Z,66722.13
2022-12-14T16:42:20.130Z,66707.72
2022-12-14T16:44:48.823Z,66701.44
2022-12-14T16:47:26.114Z,66708.25
2022-12-14T16:49:59.601Z,66705.34
2022-12-14T16:52:30.423Z,66710.16
2022-12-14T16:55:20.151Z,66712.75
2022-12-14T16:57:56.089Z,66722.81
2022-12-14T17:00:33.434Z,66723.94
2022-12-14T17:03:03.769Z,66711.50
2022-12-14T17:05:37.928Z,66709.28
2022-12-14T17:08:06.750Z,66705.13
2022-12-14T17:10:34.567Z,66707.38
2022-12-14T17:13:02.459Z,66699.97
2022-12-14T17:15:32.978Z,66702.91
2022-12-14T17:18:03.810Z,66708.69
2022-12-14T17:20:39.194Z,66696.03
2022-12-14T17:23:12.404Z,66686.88
2022-12-14T17:25:43.267Z,66685.19
2022-12-14T17:28:23.878Z,66685.00
2022-12-14T17:30:51.753Z,66685.31
2022-12-14T17:33:18.876Z,66677.38
2022-12-14T17:35:45.954Z,66682.41
2022-12-14T17:38:15.068Z,66684.41
2022-12-14T17:40:43.450Z,66677.72
2022-12-14T17:43:18.133Z,66670.09
2022-12-14T17:45:45.373Z,66671.00
2022-12-14T17:48:16.895Z,66675.47
2022-12-14T17:50:47.869Z,66681.06
2022-12-14T17:53:17.987Z,66671.78
2022-12-14T17:55:45.107Z,66672.13
2022-12-14T17:58:12.473Z,66669.53
2022-12-14T18:00:59.111Z,66673.78
2022-12-14T18:03:27.189Z,66671.00
2022-12-14T18:05:54.897Z,66670.44
2022-12-14T18:08:23.575Z,66672.47
2022-12-14T18:10:54.663Z,66664.72
2022-12-14T18:13:21.779Z,66663.94
2022-12-14T18:15:54.254Z,66656.53
2022-12-14T18:18:24.145Z,66665.41
2022-12-14T18:20:56.523Z,66663.94
2022-12-14T18:23:23.966Z,66663.38
2022-12-14T18:25:56.519Z,66660.56
2022-12-14T18:28:24.004Z,66663.72
2022-12-14T18:30:55.341Z,66668.53
2022-12-14T18:33:25.750Z,66674.34
2022-12-14T18:35:54.864Z,66669.53
2022-12-14T18:38:22.993Z,66674.34
2022-12-14T18:40:53.106Z,66673.09
2022-12-14T18:43:23.742Z,66665.28
2022-12-14T18:45:53.592Z,66664.84
2022-12-14T18:48:21.580Z,66662.25
2022-12-14T18:50:50.404Z,66665.75
2022-12-14T18:53:20.145Z,66647.94
2022-12-14T18:55:47.816Z,66646.38
2022-12-14T18:58:18.033Z,66649.72
2022-12-14T19:00:46.445Z,66646.38
2022-12-14T19:03:15.271Z,66641.56
2022-12-14T19:05:43.530Z,66637.66
2022-12-14T19:08:11.394Z,66630.38
2022-12-14T19:10:41.688Z,66633.19
2022-12-14T19:13:14.584Z,66641.00
2022-12-14T19:15:41.836Z,66646.38
2022-12-14T19:18:11.981Z,66642.91
2022-12-14T19:20:39.574Z,66639.88
2022-12-14T19:23:06.732Z,66629.81
2022-12-14T19:25:33.883Z,66628.47
2022-12-14T19:30:52.245Z,66620.09
2022-12-14T19:33:20.735Z,66633.72
2022-12-14T19:35:48.673Z,66631.25
2022-12-14T19:38:16.466Z,66614.38
2022-12-14T19:40:46.358Z,66617.63
2022-12-14T19:43:14.039Z,66613.59
2022-12-14T19:45:41.237Z,66621.78
2022-12-14T19:48:12.961Z,66622.34
2022-12-14T19:50:40.519Z,66617.28
2022-12-14T19:53:07.664Z,66619.19
2022-12-14T19:55:35.702Z,66630.38
2022-12-14T19:58:03.086Z,66630.94
2022-12-14T20:00:30.944Z,66638.19
2022-12-14T20:02:58.200Z,66647.28
2022-12-14T20:05:25.479Z,66639.13
2022-12-14T20:07:52.620Z,66633.53
2022-12-14T20:10:19.731Z,66622.00
2022-12-14T20:12:46.938Z,66616.41
2022-12-14T20:15:14.298Z,66611.59
2022-12-14T20:17:41.528Z,66601.53
2022-12-14T20:20:09.289Z,66598.28
2022-12-14T20:22:36.750Z,66592.13
2022-12-14T20:25:04.000Z,66586.53
2022-12-14T20:27:34.824Z,66582.41
2022-12-14T20:30:06.969Z,66571.44
2022-12-14T20:32:34.492Z,66561.59
2022-12-14T20:35:01.665Z,66549.50
2022-12-14T20:37:28.881Z,66547.06
2022-12-14T20:39:56.137Z,66504.19
2022-12-14T20:42:23.485Z,66540.72
2022-12-14T20:44:50.691Z,66531.22
2022-12-14T20:47:17.940Z,66520.59
2022-12-14T20:49:45.097Z,66468.13
2022-12-14T20:52:12.362Z,66515.34
2022-12-14T20:54:39.531Z,66456.41
2022-12-14T20:57:06.854Z,66493.22
2022-12-14T20:59:34.199Z,66498.59
2022-12-14T21:02:01.576Z,66500.84
2022-12-14T21:04:28.914Z,66488.97
2022-12-14T21:06:56.133Z,66491.00
2022-12-14T21:09:23.308Z,66493.00
2022-12-14T21:12:12.259Z,66486.53
2022-12-14T21:14:46.901Z,66491.34
2022-12-14T21:17:15.316Z,66477.78
2022-12-14T21:19:42.567Z,66430.72
2022-12-14T21:22:14.115Z,66471.66
2022-12-14T21:27:30.448Z,66458.81
2022-12-14T21:29:57.732Z,66453.56
2022-12-14T21:32:24.933Z,66407.25
2022-12-14T21:34:52.529Z,66453.91
2022-12-14T21:37:20.520Z,66443.19
2022-12-14T21:39:54.123Z,66443.84
2022-12-14T21:42:24.186Z,66439.41
2022-12-14T21:44:52.836Z,66388.88
2022-12-14T21:47:29.901Z,66438.72
2022-12-14T21:49:57.723Z,66387.75
2022-12-14T21:52:27.106Z,66434.03
2022-12-14T21:54:54.601Z,66430.91
2022-12-14T21:57:42.766Z,66430.91
2022-12-14T22:00:11.034Z,66443.50
2022-12-14T22:02:41.997Z,66438.47
2022-12-14T22:05:10.061Z,66430.47
2022-12-14T22:07:37.230Z,66418.59
2022-12-14T22:10:04.860Z,66417.28
2022-12-14T22:12:32.016Z,66413.59
2022-12-14T22:14:59.093Z,66362.09
2022-12-14T22:17:26.345Z,66410.34
2022-12-14T22:19:55.086Z,66404.44
2022-12-14T22:22:22.778Z,66398.88
2022-12-14T22:24:51.284Z,66397.41
2022-12-14T22:27:20.026Z,66359.06
2022-12-14T22:29:47.214Z,66396.28
2022-12-14T22:32:14.902Z,66355.38
2022-12-14T22:34:42.174Z,66411.91
2022-12-14T22:37:09.374Z,66405.78
2022-12-14T22:39:36.476Z,66407.00
2022-12-14T22:42:04.002Z,66409.69
2022-12-14T22:44:33.946Z,66408.91
2022-12-14T22:47:01.046Z,66402.78
2022-12-14T22:49:28.208Z,66393.81
2022-12-14T22:51:56.621Z,66390.47
2022-12-14T22:54:26.204Z,66391.38
2022-12-14T22:57:02.703Z,66400.53
2022-12-14T22:59:41.887Z,66397.41
2022-12-14T23:02:09.589Z,66408.91
2022-12-14T23:04:38.166Z,66409.47
2022-12-14T23:07:06.071Z,66359.06
2022-12-14T23:09:52.322Z,66391.06
2022-12-14T23:12:38.682Z,66383.44
2022-12-14T23:15:25.200Z,66386.91
2022-12-14T23:18:20.092Z,66375.63
2022-12-14T23:21:06.111Z,66393.28
2022-12-14T23:23:51.734Z,66406.09
2022-12-14T23:26:37.174Z,66399.06
2022-12-14T23:29:23.055Z,66399.41
2022-12-14T23:32:08.605Z,66389.59
2022-12-14T23:34:54.304Z,66384.00
2022-12-14T23:37:39.993Z,66378.53
2022-12-14T23:40:26.113Z,66377.63
2022-12-14T23:43:11.831Z,66375.97
2022-12-14T23:45:58.727Z,66377.63
2022-12-14T23:48:44.563Z,66384.91
2022-12-14T23:51:30.378Z,66381.22
2022-12-14T23:54:16.097Z,66383.78
2022-12-14T23:57:02.098Z,66388.81
2022-12-14T23:59:49.351Z,66383.22
